createdAt,value
2023-05-05T00:01:23.327Z,100966.70
2023-05-05T00:03:49.845Z,100967.19
2023-05-05T00:06:16.522Z,100964.80
2023-05-05T00:08:42.878Z,100963.88
2023-05-05T00:11:09.335Z,100960.55
2023-05-05T00:13:35.805Z,100960.05
2023-05-05T00:16:02.240Z,100960.75
2023-05-05T00:18:53.606Z,100961.17
2023-05-05T00:21:19.989Z,100963.78
2023-05-05T00:23:46.389Z,100965.07
2023-05-05T00:26:13.192Z,100962.94
2023-05-05T00:28:39.655Z,100963.70
2023-05-05T00:31:06.851Z,100962.96
2023-05-05T00:33:33.197Z,100959.88
2023-05-05T00:35:59.687Z,100956.62
2023-05-05T00:38:26.765Z,100959.55
2023-05-05T00:40:53.056Z,100964.96
2023-05-05T00:43:19.455Z,100967.08
2023-05-05T00:45:47.147Z,100964.15
2023-05-05T00:48:13.954Z,100953.88
2023-05-05T00:50:43.237Z,100957.23
2023-05-05T00:53:09.716Z,100962.02
2023-05-05T00:55:36.310Z,100963.63
2023-05-05T00:58:33.046Z,100962.77
2023-05-05T01:00:59.446Z,100965.84
2023-05-05T01:03:26.088Z,100961.58
2023-05-05T01:06:00.155Z,100965.33
2023-05-05T01:08:55.980Z,100966.10
2023-05-05T01:11:29.326Z,100967.79
2023-05-05T01:14:16.875Z,100965.67
2023-05-05T01:16:58.433Z,100961.17
2023-05-05T01:19:27.684Z,100960.28
2023-05-05T01:21:59.816Z,100958.04
2023-05-05T01:24:43.544Z,100951.83
2023-05-05T01:27:29.794Z,100944.33
2023-05-05T01:30:05.053Z,100943.21
2023-05-05T01:32:35.024Z,100948.34
2023-05-05T01:35:13.163Z,100943.36
2023-05-05T01:38:02.470Z,100944.00
2023-05-05T01:40:32.886Z,100944.92
2023-05-05T01:43:01.107Z,100944.23
2023-05-05T01:45:31.535Z,100938.56
2023-05-05T01:47:58.853Z,100934.09
2023-05-05T01:50:28.237Z,100927.52
2023-05-05T01:52:56.351Z,100932.30
2023-05-05T01:55:25.599Z,100935.42
2023-05-05T01:57:54.601Z,100941.20
2023-05-05T02:00:22.194Z,100938.23
2023-05-05T02:02:49.758Z,100935.98
2023-05-05T02:05:18.972Z,100939.14
2023-05-05T02:07:46.114Z,100934.66
2023-05-05T02:10:13.996Z,100934.39
2023-05-05T02:12:43.988Z,100929.86
2023-05-05T02:15:12.109Z,100931.25
2023-05-05T02:17:42.917Z,100929.88
2023-05-05T02:20:12.166Z,100924.48
2023-05-05T02:22:39.302Z,100927.35
2023-05-05T02:25:06.458Z,100924.33
2023-05-05T02:28:02.024Z,100925.06
2023-05-05T02:30:33.861Z,100916.74
2023-05-05T02:33:06.615Z,100918.38
2023-05-05T02:35:41.425Z,100917.25
2023-05-05T02:39:24.539Z,100917.41
2023-05-05T02:41:54.715Z,100917.86
2023-05-05T02:44:23.717Z,100917.33
2023-05-05T02:46:50.734Z,100914.81
2023-05-05T02:49:17.087Z,100914.98
2023-05-05T02:51:43.446Z,100912.38
2023-05-05T02:54:10.487Z,100909.05
2023-05-05T02:56:50.940Z,100906.77
2023-05-05T02:59:20.452Z,100906.27
2023-05-05T03:02:07.731Z,100906.44
2023-05-05T03:04:48.458Z,100903.27
2023-05-05T03:07:24.317Z,100904.29
2023-05-05T03:10:11.118Z,100906.50
2023-05-05T03:12:53.225Z,100903.48
2023-05-05T03:15:25.781Z,100904.80
2023-05-05T03:17:53.467Z,100905.81
2023-05-05T03:20:21.154Z,100903.92
2023-05-05T03:22:47.976Z,100903.16
2023-05-05T03:25:14.307Z,100905.64
2023-05-05T03:27:40.656Z,100903.48
2023-05-05T03:30:08.393Z,100900.70
2023-05-05T03:32:34.928Z,100900.55
2023-05-05T03:35:01.450Z,100906.55
2023-05-05T03:37:27.810Z,100906.80
2023-05-05T03:39:54.575Z,100905.08
2023-05-05T03:46:29.486Z,100911.65
2023-05-05T03:48:58.273Z,100905.71
2023-05-05T03:51:24.784Z,100906.13
2023-05-05T03:53:51.320Z,100905.23
2023-05-05T03:56:17.650Z,100906.84
2023-05-05T03:58:44.039Z,100908.10
2023-05-05T04:01:11.002Z,100910.13
2023-05-05T04:03:38.352Z,100908.48
2023-05-05T04:06:05.371Z,100912.29
2023-05-05T04:12:48.722Z,100918.69
2023-05-05T04:15:15.203Z,100926.79
2023-05-05T04:17:42.378Z,100931.82
2023-05-05T04:24:28.790Z,100949.29
2023-05-05T04:26:55.196Z,100947.04
2023-05-05T04:29:21.473Z,100955.44
2023-05-05T04:31:47.976Z,100959.22
2023-05-05T04:34:16.851Z,100963.73
2023-05-05T04:36:43.127Z,100962.13
2023-05-05T04:39:09.635Z,100964.09
2023-05-05T04:41:35.990Z,100973.37
2023-05-05T04:44:02.468Z,100973.38
2023-05-05T04:46:28.862Z,100977.21
2023-05-05T04:48:55.442Z,100979.93
2023-05-05T04:51:21.904Z,100977.77
2023-05-05T04:53:48.334Z,100978.41
2023-05-05T04:56:15.179Z,100987.44
2023-05-05T04:58:41.468Z,100984.88
2023-05-05T05:01:07.876Z,100982.05
2023-05-05T05:03:36.801Z,100987.73
2023-05-05T05:06:03.212Z,100986.21
2023-05-05T05:08:29.576Z,100981.87
2023-05-05T05:10:55.907Z,100985.31
2023-05-05T05:13:23.552Z,100989.81
2023-05-05T05:15:50.190Z,100988.09
2023-05-05T05:18:16.506Z,100990.01
2023-05-05T05:20:43.247Z,100987.36
2023-05-05T05:23:09.632Z,100991.61
2023-05-05T05:25:35.947Z,100989.73
2023-05-05T05:28:09.354Z,100990.95
2023-05-05T05:30:37.028Z,100995.25
2023-05-05T05:33:03.350Z,100998.89
2023-05-05T05:35:30.842Z,100994.73
2023-05-05T05:37:57.165Z,100994.85
2023-05-05T05:40:23.754Z,100995.73
2023-05-05T05:42:50.129Z,100992.42
2023-05-05T05:45:16.541Z,100993.54
2023-05-05T05:54:37.879Z,100996.25
2023-05-05T05:57:32.193Z,100999.89
2023-05-05T06:00:01.831Z,101000.48
2023-05-05T06:02:30.353Z,100999.50
2023-05-05T06:04:58.670Z,101003.12
2023-05-05T06:07:26.356Z,101002.88
2023-05-05T06:14:02.688Z,101005.30
2023-05-05T06:16:30.683Z,101006.72
2023-05-05T06:18:58.416Z,101013.66
2023-05-05T06:21:26.136Z,101015.11
2023-05-05T06:23:53.969Z,101014.80
2023-05-05T06:26:21.861Z,101018.17
2023-05-05T06:28:49.669Z,101018.65
2023-05-05T06:31:17.602Z,101019.54
2023-05-05T06:33:45.243Z,101017.86
2023-05-05T06:36:13.013Z,101016.20
2023-05-05T06:38:41.470Z,101019.95
2023-05-05T06:41:09.575Z,101021.00
2023-05-05T06:43:37.260Z,101022.11
2023-05-05T06:46:05.171Z,101023.30
2023-05-05T06:48:32.891Z,101026.08
2023-05-05T06:51:00.811Z,101025.31
2023-05-05T06:53:28.624Z,101029.88
2023-05-05T06:55:56.303Z,101031.70
2023-05-05T06:58:24.070Z,101036.48
2023-05-05T07:00:51.820Z,101035.54
2023-05-05T07:03:19.777Z,101035.26
2023-05-05T07:05:47.717Z,101035.80
2023-05-05T07:08:15.421Z,101040.64
2023-05-05T07:10:43.225Z,101044.35
2023-05-05T07:13:10.999Z,101043.20
2023-05-05T07:15:46.422Z,101045.27
2023-05-05T07:18:14.485Z,101044.30
2023-05-05T07:20:43.642Z,101045.22
2023-05-05T07:23:11.359Z,101047.30
2023-05-05T07:25:39.209Z,101050.63
2023-05-05T07:28:06.989Z,101054.16
2023-05-05T07:30:34.644Z,101054.25
2023-05-05T07:33:03.004Z,101050.80
2023-05-05T07:35:30.732Z,101047.52
2023-05-05T07:37:58.466Z,101049.04
2023-05-05T07:40:26.236Z,101048.38
2023-05-05T07:42:53.957Z,101043.64
2023-05-05T07:45:21.813Z,101043.83
2023-05-05T07:47:49.553Z,101048.45
2023-05-05T07:50:18.030Z,101049.55
2023-05-05T07:52:49.991Z,101048.61
2023-05-05T07:55:21.575Z,101054.64
2023-05-05T07:57:49.875Z,101055.81
2023-05-05T08:00:19.463Z,101054.66
2023-05-05T08:02:48.734Z,101048.95
2023-05-05T08:05:16.979Z,101049.62
2023-05-05T08:07:44.752Z,101054.25
2023-05-05T08:10:12.929Z,101053.25
2023-05-05T08:12:40.849Z,101053.39
2023-05-05T08:15:09.188Z,101054.45
2023-05-05T08:17:52.019Z,101059.14
2023-05-05T08:20:20.633Z,101064.09
2023-05-05T08:22:50.102Z,101067.98
2023-05-05T08:25:17.857Z,101067.90
2023-05-05T08:27:46.032Z,101070.13
2023-05-05T08:30:14.260Z,101063.93
2023-05-05T08:32:41.974Z,101067.29
2023-05-05T08:35:42.545Z,101066.92
2023-05-05T08:39:37.027Z,101073.45
2023-05-05T08:42:41.096Z,101067.55
2023-05-05T08:45:40.910Z,101067.56
2023-05-05T08:48:51.153Z,101067.12
2023-05-05T08:55:19.156Z,101064.31
2023-05-05T08:58:25.998Z,101063.36
2023-05-05T09:01:21.540Z,101060.48
2023-05-05T09:03:53.716Z,101059.91
2023-05-05T09:06:39.761Z,101059.80
2023-05-05T09:09:10.336Z,101057.25
2023-05-05T09:11:39.393Z,101058.52
2023-05-05T09:14:07.268Z,101060.44
2023-05-05T09:16:35.155Z,101056.62
2023-05-05T09:19:04.311Z,101058.61
2023-05-05T09:21:32.462Z,101060.92
2023-05-05T09:24:10.710Z,101057.73
2023-05-05T09:26:43.434Z,101061.50
2023-05-05T09:29:21.316Z,101061.05
2023-05-05T09:32:05.780Z,101064.91
2023-05-05T09:34:36.952Z,101066.70
2023-05-05T09:37:06.046Z,101067.98
2023-05-05T09:39:33.932Z,101069.45
2023-05-05T09:42:03.220Z,101065.96
2023-05-05T09:44:35.995Z,101074.99
2023-05-05T09:47:07.243Z,101081.95
2023-05-05T09:49:39.901Z,101075.20
2023-05-05T09:52:16.772Z,101077.42
2023-05-05T09:54:44.503Z,101077.59
2023-05-05T09:57:33.499Z,101068.79
2023-05-05T10:00:02.290Z,101070.31
2023-05-05T10:02:38.746Z,101068.89
2023-05-05T10:06:09.886Z,101071.39
2023-05-05T10:08:39.919Z,101064.34
2023-05-05T10:11:07.794Z,101056.80
2023-05-05T10:13:42.179Z,101065.33
2023-05-05T10:16:12.608Z,101066.85
2023-05-05T10:18:46.474Z,101073.94
2023-05-05T10:26:53.330Z,101078.84
2023-05-05T10:29:46.102Z,101082.06
2023-05-05T10:33:30.255Z,101085.71
2023-05-05T10:36:02.641Z,101085.20
2023-05-05T10:38:31.284Z,101086.50
2023-05-05T10:41:02.356Z,101083.54
2023-05-05T10:43:32.654Z,101081.05
2023-05-05T10:46:09.568Z,101085.11
2023-05-05T10:48:47.850Z,101081.30
2023-05-05T10:51:39.978Z,101081.74
2023-05-05T10:54:13.119Z,101081.30
2023-05-05T10:56:42.105Z,101078.30
2023-05-05T10:59:38.258Z,101080.20
2023-05-05T11:02:20.042Z,101075.64
2023-05-05T11:05:16.986Z,101069.23
2023-05-05T11:07:46.466Z,101072.57
2023-05-05T11:10:15.786Z,101069.61
2023-05-05T11:13:06.975Z,101062.43
2023-05-05T11:15:37.753Z,101063.60
2023-05-05T11:18:07.762Z,101062.30
2023-05-05T11:20:40.129Z,101056.87
2023-05-05T11:23:07.972Z,101058.40
2023-05-05T11:25:42.246Z,101065.05
2023-05-05T11:28:17.799Z,101064.80
2023-05-05T11:30:54.979Z,101061.23
2023-05-05T11:33:36.035Z,101066.17
2023-05-05T11:36:06.722Z,101063.44
2023-05-05T11:38:40.589Z,101069.81
2023-05-05T11:41:24.838Z,101072.98
2023-05-05T11:44:12.282Z,101075.30
2023-05-05T11:46:41.359Z,101076.02
2023-05-05T11:49:09.463Z,101069.34
2023-05-05T11:51:37.690Z,101067.30
2023-05-05T11:54:05.770Z,101059.78
2023-05-05T11:56:33.517Z,101065.06
2023-05-05T11:59:10.043Z,101061.82
2023-05-05T12:01:41.695Z,101063.90
2023-05-05T12:04:14.585Z,101070.95
2023-05-05T12:06:43.032Z,101067.85
2023-05-05T12:09:21.937Z,101069.02
2023-05-05T12:11:53.089Z,101068.08
2023-05-05T12:14:21.434Z,101060.91
2023-05-05T12:17:25.661Z,101069.02
2023-05-05T12:19:55.036Z,101064.70
2023-05-05T12:22:27.025Z,101067.58
2023-05-05T12:24:56.280Z,101067.02
2023-05-05T12:27:25.394Z,101069.36
2023-05-05T12:29:57.867Z,101067.48
2023-05-05T12:32:28.054Z,101068.39
2023-05-05T12:34:59.265Z,101064.55
2023-05-05T12:37:27.603Z,101062.02
2023-05-05T12:39:55.580Z,101065.68
2023-05-05T12:42:23.495Z,101067.86
2023-05-05T12:45:46.853Z,101061.67
2023-05-05T12:48:23.962Z,101061.20
2023-05-05T12:50:52.368Z,101060.77
2023-05-05T12:53:24.164Z,101065.02
2023-05-05T12:55:52.041Z,101066.83
2023-05-05T12:58:19.801Z,101068.73
2023-05-05T13:01:10.583Z,101076.09
2023-05-05T13:03:38.531Z,101074.08
2023-05-05T13:06:20.905Z,101070.77
2023-05-05T13:08:48.625Z,101070.44
2023-05-05T13:11:16.653Z,101069.34
2023-05-05T13:13:44.385Z,101066.30
2023-05-05T13:16:12.211Z,101070.91
2023-05-05T13:18:47.431Z,101072.96
2023-05-05T13:21:15.292Z,101068.89
2023-05-05T13:23:46.228Z,101063.44
2023-05-05T13:26:14.048Z,101064.61
2023-05-05T13:28:41.897Z,101062.17
2023-05-05T13:31:09.713Z,101061.91
2023-05-05T13:33:37.622Z,101057.23
2023-05-05T13:36:05.446Z,101059.20
2023-05-05T13:38:33.338Z,101056.41
2023-05-05T13:41:01.176Z,101054.41
2023-05-05T13:43:29.069Z,101055.41
2023-05-05T13:46:05.646Z,101049.77
2023-05-05T13:48:40.878Z,101049.46
2023-05-05T13:51:08.750Z,101044.54
2023-05-05T13:53:36.584Z,101048.90
2023-05-05T13:56:04.653Z,101047.37
2023-05-05T13:58:32.381Z,101044.10
2023-05-05T14:01:00.152Z,101045.25
2023-05-05T14:03:27.966Z,101051.02
2023-05-05T14:05:55.924Z,101050.34
2023-05-05T14:08:23.689Z,101041.57
2023-05-05T14:10:52.272Z,101044.80
2023-05-05T14:13:20.140Z,101042.91
2023-05-05T14:15:50.358Z,101042.70
2023-05-05T14:18:18.200Z,101037.66
2023-05-05T14:20:48.186Z,101039.52
2023-05-05T14:23:15.877Z,101048.77
2023-05-05T14:25:43.625Z,101044.85
2023-05-05T14:28:11.258Z,101053.27
2023-05-05T14:30:40.371Z,101054.77
2023-05-05T14:33:08.183Z,101054.89
2023-05-05T14:35:37.264Z,101054.54
2023-05-05T14:38:05.015Z,101053.05
2023-05-05T14:40:32.830Z,101051.48
2023-05-05T14:43:00.722Z,101051.89
2023-05-05T14:45:29.699Z,101051.11
2023-05-05T14:47:57.595Z,101047.10
2023-05-05T14:50:25.296Z,101043.98
2023-05-05T14:52:53.471Z,101044.76
2023-05-05T14:55:21.492Z,101049.58
2023-05-05T14:57:49.118Z,101051.02
2023-05-05T15:00:17.086Z,101056.36
2023-05-05T15:02:45.095Z,101056.84
2023-05-05T15:05:12.867Z,101056.51
2023-05-05T15:07:40.517Z,101057.83
2023-05-05T15:10:09.047Z,101057.28
2023-05-05T15:12:36.949Z,101062.88
2023-05-05T15:15:08.663Z,101060.13
2023-05-05T15:17:38.798Z,101059.51
2023-05-05T15:20:10.091Z,101059.45
2023-05-05T15:22:37.760Z,101058.53
2023-05-05T15:25:09.625Z,101055.15
2023-05-05T15:27:38.350Z,101059.20
2023-05-05T15:30:07.152Z,101056.13
2023-05-05T15:32:34.956Z,101060.91
2023-05-05T15:35:02.900Z,101065.63
2023-05-05T15:37:30.632Z,101067.98
2023-05-05T15:39:58.797Z,101077.67
2023-05-05T15:42:26.831Z,101076.96
2023-05-05T15:44:55.395Z,101077.23
2023-05-05T15:47:23.176Z,101076.51
2023-05-05T15:49:59.351Z,101079.80
2023-05-05T15:52:27.113Z,101082.13
2023-05-05T15:54:56.014Z,101083.80
2023-05-05T15:57:23.698Z,101082.02
2023-05-05T15:59:54.600Z,101074.64
2023-05-05T16:02:22.460Z,101067.12
2023-05-05T16:04:50.348Z,101064.38
2023-05-05T16:07:18.060Z,101061.66
2023-05-05T16:10:16.862Z,101058.58
2023-05-05T16:12:44.674Z,101056.08
2023-05-05T16:15:12.550Z,101054.77
2023-05-05T16:17:40.330Z,101053.41
2023-05-05T16:20:08.521Z,101051.43
2023-05-05T16:22:36.915Z,101048.62
2023-05-05T16:25:04.946Z,101048.88
2023-05-05T16:27:32.671Z,101053.70
2023-05-05T16:30:10.224Z,101053.75
2023-05-05T16:32:38.714Z,101055.17
2023-05-05T16:38:56.413Z,101051.22
2023-05-05T16:41:24.321Z,101049.90
2023-05-05T16:43:52.382Z,101047.04
2023-05-05T16:46:20.697Z,101047.83
2023-05-05T16:48:48.604Z,101045.05
2023-05-05T16:51:16.486Z,101045.44
2023-05-05T16:53:44.162Z,101044.01
2023-05-05T16:56:13.092Z,101043.42
2023-05-05T16:58:41.003Z,101039.52
2023-05-05T17:01:08.786Z,101038.20
2023-05-05T17:03:36.418Z,101036.74
2023-05-05T17:06:04.383Z,101039.48
2023-05-05T17:08:33.983Z,101039.71
2023-05-05T17:11:01.594Z,101036.98
2023-05-05T17:13:33.268Z,101037.10
2023-05-05T17:16:01.630Z,101043.66
2023-05-05T17:18:30.957Z,101047.05
2023-05-05T17:21:03.494Z,101052.27
2023-05-05T17:23:37.481Z,101054.63
2023-05-05T17:26:06.312Z,101052.46
2023-05-05T17:28:44.442Z,101050.15
2023-05-05T17:31:12.629Z,101050.67
2023-05-05T17:33:40.431Z,101054.19
2023-05-05T17:36:09.016Z,101056.30
2023-05-05T17:38:36.831Z,101052.82
2023-05-05T17:47:33.070Z,101065.13
2023-05-05T17:54:18.756Z,101069.43
2023-05-05T17:56:47.854Z,101067.24
2023-05-05T17:59:14.178Z,101077.13
2023-05-05T18:01:40.747Z,101076.50
2023-05-05T18:04:08.655Z,101077.95
2023-05-05T18:06:35.053Z,101080.49
2023-05-05T18:09:02.859Z,101078.89
2023-05-05T18:11:30.440Z,101079.70
2023-05-05T18:13:57.111Z,101079.19
2023-05-05T18:16:27.149Z,101082.71
2023-05-05T18:18:56.675Z,101084.87
2023-05-05T18:21:23.232Z,101082.61
2023-05-05T18:23:49.767Z,101090.61
2023-05-05T18:26:16.926Z,101091.42
2023-05-05T18:28:43.420Z,101089.61
2023-05-05T18:31:10.266Z,101089.39
2023-05-05T18:33:36.810Z,101089.76
2023-05-05T18:36:03.578Z,101090.71
2023-05-05T18:38:31.729Z,101094.54
2023-05-05T18:40:58.220Z,101096.45
2023-05-05T18:43:24.886Z,101101.95
2023-05-05T18:45:51.356Z,101106.16
2023-05-05T18:48:17.840Z,101107.58
2023-05-05T18:50:46.158Z,101102.27
2023-05-05T18:53:14.128Z,101102.77
2023-05-05T18:55:43.579Z,101103.73
2023-05-05T18:58:10.006Z,101104.88
2023-05-05T19:00:36.767Z,101097.49
2023-05-05T19:03:09.532Z,101099.42
2023-05-05T19:05:40.162Z,101101.97
2023-05-05T19:08:06.867Z,101103.73
2023-05-05T19:10:45.259Z,101104.86
2023-05-05T19:13:17.484Z,101104.70
2023-05-05T19:15:44.297Z,101101.69
2023-05-05T19:18:10.926Z,101104.49
2023-05-05T19:20:38.095Z,101104.67
2023-05-05T19:23:06.417Z,101104.55
2023-05-05T19:25:36.301Z,101107.52
2023-05-05T19:28:03.049Z,101106.42
2023-05-05T19:30:31.726Z,101107.65
2023-05-05T19:32:58.654Z,101106.23
2023-05-05T19:35:25.676Z,101104.69
2023-05-05T19:37:52.359Z,101103.21
2023-05-05T19:40:18.959Z,101099.11
2023-05-05T19:42:48.635Z,101099.00
2023-05-05T19:45:16.176Z,101104.20
2023-05-05T19:47:42.802Z,101102.81
2023-05-05T19:50:10.206Z,101103.67
2023-05-05T19:52:37.758Z,101102.55
2023-05-05T19:55:06.104Z,101101.54
2023-05-05T19:57:32.717Z,101100.36
2023-05-05T20:00:00.782Z,101102.45
2023-05-05T20:02:31.021Z,101100.89
2023-05-05T20:04:59.987Z,101100.18
2023-05-05T20:07:26.754Z,101101.16
2023-05-05T20:09:53.470Z,101100.91
2023-05-05T20:12:22.487Z,101103.59
2023-05-05T20:14:49.134Z,101105.61
2023-05-05T20:17:19.438Z,101105.32
2023-05-05T20:19:47.384Z,101099.30
2023-05-05T20:22:13.961Z,101103.76
2023-05-05T20:24:40.501Z,101097.13
2023-05-05T20:27:07.356Z,101096.48
2023-05-05T20:29:34.074Z,101091.11
2023-05-05T20:32:25.231Z,101092.67
2023-05-05T20:34:54.845Z,101094.82
2023-05-05T20:37:21.629Z,101096.64
2023-05-05T20:39:52.005Z,101089.98
2023-05-05T20:42:19.626Z,101089.25
2023-05-05T20:44:46.269Z,101087.22
2023-05-05T20:47:12.916Z,101091.34
2023-05-05T20:49:49.176Z,101093.95
2023-05-05T20:53:34.391Z,101093.45
2023-05-05T20:57:18.296Z,101094.68
2023-05-05T21:03:14.031Z,101100.83
2023-05-05T21:06:26.954Z,101104.00
2023-05-05T21:33:43.853Z,101099.74
2023-05-05T21:53:16.296Z,101109.31
2023-05-05T22:06:44.765Z,101104.21
2023-05-05T22:13:49.033Z,101095.23
2023-05-05T22:17:01.430Z,101097.43
2023-05-05T22:33:06.162Z,101099.17
2023-05-05T22:36:08.891Z,101104.81
2023-05-05T22:42:34.037Z,101091.98
2023-05-05T22:47:37.675Z,101090.23
2023-05-05T22:51:22.969Z,101087.71
2023-05-05T22:55:35.675Z,101090.48
2023-05-05T22:58:34.258Z,101085.53
2023-05-05T23:01:24.360Z,101083.58
2023-05-05T23:03:52.572Z,101083.70
2023-05-05T23:07:00.296Z,101080.98
2023-05-05T23:09:28.680Z,101081.56
2023-05-05T23:13:03.863Z,101082.39
2023-05-05T23:15:38.011Z,101084.11
2023-05-05T23:18:12.268Z,101085.07
2023-05-05T23:23:07.488Z,101078.27
2023-05-05T23:26:29.421Z,101074.30
2023-05-05T23:30:43.568Z,101072.19
2023-05-05T23:33:50.368Z,101073.02
2023-05-05T23:38:07.376Z,101072.76
2023-05-05T23:42:10.451Z,101070.33
2023-05-05T23:44:59.184Z,101066.80
2023-05-05T23:51:17.667Z,101065.17
2023-05-05T23:58:17.648Z,101073.32
